sensor_id;sensor_type;location;lat;lon;timestamp;P1;durP1;ratioP1;P2;durP2;ratioP2
12359;SDS011;6244;51.460;7.090;2023-04-15T00:02:47;11.10;;;7.10;;
12359;SDS011;6244;51.460;7.090;2023-04-15T00:07:44;11.23;;;7.15;;
12359;SDS011;6244;51.460;7.090;2023-04-15T00:12:41;15.10;;;7.70;;
12359;SDS011;6244;51.460;7.090;2023-04-15T00:17:37;9.30;;;6.70;;
12359;SDS011;6244;51.460;7.090;2023-04-15T00:22:35;9.68;;;7.13;;
12359;SDS011;6244;51.460;7.090;2023-04-15T00:27:32;11.95;;;8.00;;
12359;SDS011;6244;51.460;7.090;2023-04-15T00:32:28;9.57;;;6.78;;
12359;SDS011;6244;51.460;7.090;2023-04-15T00:37:25;11.23;;;7.50;;
12359;SDS011;6244;51.460;7.090;2023-04-15T00:42:23;9.50;;;7.22;;
12359;SDS011;6244;51.460;7.090;2023-04-15T00:47:20;11.38;;;7.22;;
12359;SDS011;6244;51.460;7.090;2023-04-15T00:52:17;10.93;;;7.88;;
12359;SDS011;6244;51.460;7.090;2023-04-15T00:57:14;10.43;;;8.30;;
12359;SDS011;6244;51.460;7.090;2023-04-15T01:02:12;10.07;;;7.22;;
12359;SDS011;6244;51.460;7.090;2023-04-15T01:07:08;10.85;;;7.80;;
12359;SDS011;6244;51.460;7.090;2023-04-15T01:12:05;12.73;;;7.82;;
12359;SDS011;6244;51.460;7.090;2023-04-15T01:17:02;10.60;;;8.48;;
12359;SDS011;6244;51.460;7.090;2023-04-15T01:22:00;11.48;;;7.60;;
12359;SDS011;6244;51.460;7.090;2023-04-15T01:26:59;10.43;;;7.60;;
12359;SDS011;6244;51.460;7.090;2023-04-15T01:31:55;13.38;;;8.35;;
12359;SDS011;6244;51.460;7.090;2023-04-15T01:36:52;13.70;;;7.93;;
12359;SDS011;6244;51.460;7.090;2023-04-15T01:41:48;11.07;;;7.70;;
12359;SDS011;6244;51.460;7.090;2023-04-15T01:46:49;11.80;;;8.00;;
12359;SDS011;6244;51.460;7.090;2023-04-15T01:51:46;11.77;;;8.30;;
12359;SDS011;6244;51.460;7.090;2023-04-15T01:56:43;11.63;;;7.95;;
12359;SDS011;6244;51.460;7.090;2023-04-15T02:01:39;13.00;;;8.23;;
12359;SDS011;6244;51.460;7.090;2023-04-15T02:06:37;14.88;;;9.93;;
12359;SDS011;6244;51.460;7.090;2023-04-15T02:11:34;16.67;;;10.27;;
12359;SDS011;6244;51.460;7.090;2023-04-15T02:16:31;14.45;;;10.32;;
12359;SDS011;6244;51.460;7.090;2023-04-15T02:21:28;12.57;;;8.93;;
12359;SDS011;6244;51.460;7.090;2023-04-15T02:26:26;14.52;;;9.57;;
12359;SDS011;6244;51.460;7.090;2023-04-15T02:31:26;14.35;;;9.88;;
12359;SDS011;6244;51.460;7.090;2023-04-15T02:36:22;15.68;;;9.38;;
12359;SDS011;6244;51.460;7.090;2023-04-15T02:41:19;15.57;;;10.00;;
12359;SDS011;6244;51.460;7.090;2023-04-15T02:46:21;15.48;;;10.10;;
12359;SDS011;6244;51.460;7.090;2023-04-15T02:51:18;13.23;;;8.63;;
12359;SDS011;6244;51.460;7.090;2023-04-15T02:56:16;13.00;;;8.93;;
12359;SDS011;6244;51.460;7.090;2023-04-15T03:01:13;12.45;;;9.57;;
12359;SDS011;6244;51.460;7.090;2023-04-15T03:06:11;15.90;;;10.02;;
12359;SDS011;6244;51.460;7.090;2023-04-15T03:11:08;14.75;;;9.52;;
12359;SDS011;6244;51.460;7.090;2023-04-15T03:16:05;13.25;;;9.48;;
12359;SDS011;6244;51.460;7.090;2023-04-15T03:21:02;13.75;;;10.00;;
12359;SDS011;6244;51.460;7.090;2023-04-15T03:26:01;15.35;;;10.05;;
12359;SDS011;6244;51.460;7.090;2023-04-15T03:30:58;16.80;;;10.68;;
12359;SDS011;6244;51.460;7.090;2023-04-15T03:35:55;14.98;;;9.95;;
12359;SDS011;6244;51.460;7.090;2023-04-15T03:40:51;15.38;;;10.27;;
12359;SDS011;6244;51.460;7.090;2023-04-15T03:45:49;14.88;;;10.10;;
12359;SDS011;6244;51.460;7.090;2023-04-15T03:50:46;12.95;;;9.23;;
12359;SDS011;6244;51.460;7.090;2023-04-15T03:55:42;15.77;;;9.85;;
12359;SDS011;6244;51.460;7.090;2023-04-15T04:00:39;14.18;;;9.10;;
12359;SDS011;6244;51.460;7.090;2023-04-15T04:05:37;14.65;;;9.98;;
12359;SDS011;6244;51.460;7.090;2023-04-15T04:10:35;12.05;;;8.63;;
12359;SDS011;6244;51.460;7.090;2023-04-15T04:15:32;14.40;;;8.70;;
12359;SDS011;6244;51.460;7.090;2023-04-15T04:20:28;12.93;;;8.80;;
12359;SDS011;6244;51.460;7.090;2023-04-15T04:25:27;15.65;;;8.93;;
12359;SDS011;6244;51.460;7.090;2023-04-15T04:30:23;12.75;;;8.65;;
12359;SDS011;6244;51.460;7.090;2023-04-15T04:35:20;10.00;;;8.27;;
12359;SDS011;6244;51.460;7.090;2023-04-15T04:40:17;13.90;;;9.02;;
12359;SDS011;6244;51.460;7.090;2023-04-15T04:45:14;14.07;;;9.15;;
12359;SDS011;6244;51.460;7.090;2023-04-15T04:50:11;12.75;;;9.15;;
12359;SDS011;6244;51.460;7.090;2023-04-15T04:55:08;12.93;;;8.93;;
12359;SDS011;6244;51.460;7.090;2023-04-15T05:00:05;14.55;;;9.85;;
12359;SDS011;6244;51.460;7.090;2023-04-15T05:05:04;14.68;;;9.73;;
12359;SDS011;6244;51.460;7.090;2023-04-15T05:10:01;13.93;;;9.80;;
12359;SDS011;6244;51.460;7.090;2023-04-15T05:14:58;13.15;;;9.00;;
12359;SDS011;6244;51.460;7.090;2023-04-15T05:19:55;14.57;;;9.65;;
12359;SDS011;6244;51.460;7.090;2023-04-15T05:24:53;15.85;;;9.98;;
12359;SDS011;6244;51.460;7.090;2023-04-15T05:29:50;15.70;;;10.10;;
12359;SDS011;6244;51.460;7.090;2023-04-15T05:34:46;13.18;;;9.10;;
12359;SDS011;6244;51.460;7.090;2023-04-15T05:39:43;13.38;;;9.60;;
12359;SDS011;6244;51.460;7.090;2023-04-15T05:44:40;15.95;;;9.85;;
12359;SDS011;6244;51.460;7.090;2023-04-15T05:49:37;12.30;;;9.35;;
12359;SDS011;6244;51.460;7.090;2023-04-15T05:54:33;17.17;;;9.93;;
12359;SDS011;6244;51.460;7.090;2023-04-15T05:59:30;14.27;;;10.23;;
12359;SDS011;6244;51.460;7.090;2023-04-15T06:04:28;15.65;;;10.57;;
12359;SDS011;6244;51.460;7.090;2023-04-15T06:09:25;19.33;;;10.30;;
12359;SDS011;6244;51.460;7.090;2023-04-15T06:14:22;15.02;;;10.20;;
12359;SDS011;6244;51.460;7.090;2023-04-15T06:19:19;19.27;;;11.18;;
12359;SDS011;6244;51.460;7.090;2023-04-15T06:24:17;18.02;;;10.63;;
12359;SDS011;6244;51.460;7.090;2023-04-15T06:29:13;18.75;;;11.20;;
12359;SDS011;6244;51.460;7.090;2023-04-15T06:34:10;18.40;;;10.43;;
12359;SDS011;6244;51.460;7.090;2023-04-15T06:39:06;17.77;;;10.82;;
12359;SDS011;6244;51.460;7.090;2023-04-15T06:44:04;16.02;;;11.55;;
12359;SDS011;6244;51.460;7.090;2023-04-15T06:49:01;18.13;;;11.95;;
12359;SDS011;6244;51.460;7.090;2023-04-15T06:53:58;18.67;;;11.38;;
12359;SDS011;6244;51.460;7.090;2023-04-15T06:58:54;16.08;;;11.32;;
12359;SDS011;6244;51.460;7.090;2023-04-15T07:03:52;19.40;;;10.93;;
12359;SDS011;6244;51.460;7.090;2023-04-15T07:08:49;16.75;;;10.82;;
12359;SDS011;6244;51.460;7.090;2023-04-15T07:13:45;15.73;;;10.15;;
12359;SDS011;6244;51.460;7.090;2023-04-15T07:18:42;14.98;;;9.82;;
12359;SDS011;6244;51.460;7.090;2023-04-15T07:23:40;15.73;;;10.15;;
12359;SDS011;6244;51.460;7.090;2023-04-15T07:28:37;18.50;;;11.20;;
12359;SDS011;6244;51.460;7.090;2023-04-15T07:33:33;15.60;;;10.05;;
12359;SDS011;6244;51.460;7.090;2023-04-15T07:38:31;15.48;;;10.25;;
12359;SDS011;6244;51.460;7.090;2023-04-15T07:43:28;17.65;;;10.30;;
12359;SDS011;6244;51.460;7.090;2023-04-15T07:48:25;14.50;;;9.50;;
12359;SDS011;6244;51.460;7.090;2023-04-15T07:53:22;17.02;;;10.60;;
12359;SDS011;6244;51.460;7.090;2023-04-15T07:58:18;16.30;;;9.35;;
12359;SDS011;6244;51.460;7.090;2023-04-15T08:03:16;15.77;;;8.95;;
12359;SDS011;6244;51.460;7.090;2023-04-15T08:08:13;14.45;;;8.43;;
12359;SDS011;6244;51.460;7.090;2023-04-15T08:13:09;13.38;;;8.75;;
12359;SDS011;6244;51.460;7.090;2023-04-15T08:18:06;13.20;;;8.18;;
12359;SDS011;6244;51.460;7.090;2023-04-15T08:23:04;13.32;;;7.93;;
12359;SDS011;6244;51.460;7.090;2023-04-15T08:28:02;10.75;;;7.53;;
12359;SDS011;6244;51.460;7.090;2023-04-15T08:32:59;9.98;;;7.10;;
12359;SDS011;6244;51.460;7.090;2023-04-15T08:37:56;8.80;;;5.80;;
12359;SDS011;6244;51.460;7.090;2023-04-15T08:42:54;7.20;;;4.80;;
12359;SDS011;6244;51.460;7.090;2023-04-15T08:47:53;7.55;;;4.75;;
12359;SDS011;6244;51.460;7.090;2023-04-15T08:52:52;6.53;;;4.65;;
12359;SDS011;6244;51.460;7.090;2023-04-15T08:57:50;6.70;;;4.60;;
12359;SDS011;6244;51.460;7.090;2023-04-15T09:02:48;9.35;;;5.28;;
12359;SDS011;6244;51.460;7.090;2023-04-15T09:07:44;7.53;;;4.82;;
12359;SDS011;6244;51.460;7.090;2023-04-15T09:12:45;6.60;;;4.50;;
12359;SDS011;6244;51.460;7.090;2023-04-15T09:17:42;6.82;;;4.28;;
12359;SDS011;6244;51.460;7.090;2023-04-15T09:22:41;7.22;;;4.57;;
12359;SDS011;6244;51.460;7.090;2023-04-15T09:27:39;7.70;;;4.63;;
12359;SDS011;6244;51.460;7.090;2023-04-15T09:32:47;6.88;;;4.57;;
12359;SDS011;6244;51.460;7.090;2023-04-15T09:37:46;6.63;;;4.32;;
12359;SDS011;6244;51.460;7.090;2023-04-15T09:42:55;5.75;;;4.15;;
12359;SDS011;6244;51.460;7.090;2023-04-15T09:47:52;7.18;;;4.78;;
12359;SDS011;6244;51.460;7.090;2023-04-15T09:52:50;6.13;;;4.65;;
12359;SDS011;6244;51.460;7.090;2023-04-15T09:57:46;7.15;;;4.68;;
12359;SDS011;6244;51.460;7.090;2023-04-15T10:02:43;7.68;;;4.50;;
12359;SDS011;6244;51.460;7.090;2023-04-15T10:07:42;9.15;;;5.78;;
12359;SDS011;6244;51.460;7.090;2023-04-15T10:12:41;8.13;;;5.95;;
12359;SDS011;6244;51.460;7.090;2023-04-15T10:17:38;11.20;;;7.85;;
12359;SDS011;6244;51.460;7.090;2023-04-15T10:22:39;7.05;;;5.22;;
12359;SDS011;6244;51.460;7.090;2023-04-15T10:27:38;9.27;;;5.47;;
12359;SDS011;6244;51.460;7.090;2023-04-15T10:32:37;7.45;;;5.15;;
12359;SDS011;6244;51.460;7.090;2023-04-15T10:37:36;8.05;;;5.28;;
12359;SDS011;6244;51.460;7.090;2023-04-15T10:42:33;9.70;;;5.38;;
12359;SDS011;6244;51.460;7.090;2023-04-15T10:47:30;8.60;;;5.55;;
12359;SDS011;6244;51.460;7.090;2023-04-15T10:52:28;9.13;;;6.80;;
12359;SDS011;6244;51.460;7.090;2023-04-15T10:57:26;7.68;;;6.07;;
12359;SDS011;6244;51.460;7.090;2023-04-15T11:02:40;7.47;;;5.68;;
12359;SDS011;6244;51.460;7.090;2023-04-15T11:07:40;6.95;;;5.80;;
12359;SDS011;6244;51.460;7.090;2023-04-15T11:12:49;8.68;;;6.32;;
12359;SDS011;6244;51.460;7.090;2023-04-15T11:17:47;9.32;;;6.55;;
12359;SDS011;6244;51.460;7.090;2023-04-15T11:22:48;10.52;;;7.65;;
12359;SDS011;6244;51.460;7.090;2023-04-15T11:27:45;12.02;;;7.18;;
12359;SDS011;6244;51.460;7.090;2023-04-15T11:32:42;9.32;;;6.28;;
12359;SDS011;6244;51.460;7.090;2023-04-15T11:37:38;8.40;;;5.72;;
12359;SDS011;6244;51.460;7.090;2023-04-15T11:42:37;7.50;;;5.82;;
12359;SDS011;6244;51.460;7.090;2023-04-15T11:47:34;8.35;;;5.97;;
12359;SDS011;6244;51.460;7.090;2023-04-15T11:52:31;8.13;;;5.28;;
12359;SDS011;6244;51.460;7.090;2023-04-15T11:57:30;7.95;;;6.30;;
12359;SDS011;6244;51.460;7.090;2023-04-15T12:02:30;8.18;;;5.30;;
12359;SDS011;6244;51.460;7.090;2023-04-15T12:07:27;7.38;;;5.00;;
12359;SDS011;6244;51.460;7.090;2023-04-15T12:12:25;8.07;;;5.18;;
12359;SDS011;6244;51.460;7.090;2023-04-15T12:17:22;11.18;;;7.38;;
12359;SDS011;6244;51.460;7.090;2023-04-15T12:22:20;6.93;;;4.75;;
12359;SDS011;6244;51.460;7.090;2023-04-15T12:27:17;7.05;;;5.00;;
12359;SDS011;6244;51.460;7.090;2023-04-15T12:32:15;8.02;;;4.95;;
12359;SDS011;6244;51.460;7.090;2023-04-15T12:37:14;8.48;;;6.20;;
12359;SDS011;6244;51.460;7.090;2023-04-15T12:42:13;8.50;;;5.70;;
12359;SDS011;6244;51.460;7.090;2023-04-15T12:47:10;7.20;;;4.95;;
12359;SDS011;6244;51.460;7.090;2023-04-15T12:52:08;8.55;;;6.03;;
12359;SDS011;6244;51.460;7.090;2023-04-15T12:57:04;6.47;;;4.93;;
12359;SDS011;6244;51.460;7.090;2023-04-15T13:02:02;8.07;;;5.28;;
12359;SDS011;6244;51.460;7.090;2023-04-15T13:06:59;6.90;;;4.68;;
12359;SDS011;6244;51.460;7.090;2023-04-15T13:11:56;8.13;;;4.60;;
12359;SDS011;6244;51.460;7.090;2023-04-15T13:16:53;7.53;;;4.90;;
12359;SDS011;6244;51.460;7.090;2023-04-15T13:21:51;7.25;;;4.32;;
12359;SDS011;6244;51.460;7.090;2023-04-15T13:26:47;6.85;;;5.22;;
12359;SDS011;6244;51.460;7.090;2023-04-15T13:31:44;9.95;;;6.38;;
12359;SDS011;6244;51.460;7.090;2023-04-15T13:36:40;10.40;;;5.70;;
12359;SDS011;6244;51.460;7.090;2023-04-15T13:41:38;9.93;;;5.95;;
12359;SDS011;6244;51.460;7.090;2023-04-15T13:46:35;9.70;;;5.90;;
12359;SDS011;6244;51.460;7.090;2023-04-15T13:51:33;7.18;;;5.10;;
12359;SDS011;6244;51.460;7.090;2023-04-15T13:56:30;7.63;;;5.03;;
12359;SDS011;6244;51.460;7.090;2023-04-15T14:01:28;7.07;;;5.28;;
12359;SDS011;6244;51.460;7.090;2023-04-15T14:06:25;11.32;;;5.75;;
12359;SDS011;6244;51.460;7.090;2023-04-15T14:11:22;16.13;;;9.70;;
12359;SDS011;6244;51.460;7.090;2023-04-15T14:16:18;16.95;;;10.10;;
12359;SDS011;6244;51.460;7.090;2023-04-15T14:21:16;16.92;;;10.27;;
12359;SDS011;6244;51.460;7.090;2023-04-15T14:26:13;8.10;;;6.00;;
12359;SDS011;6244;51.460;7.090;2023-04-15T14:31:09;7.00;;;5.45;;
12359;SDS011;6244;51.460;7.090;2023-04-15T14:36:06;9.48;;;6.07;;
12359;SDS011;6244;51.460;7.090;2023-04-15T14:41:06;9.90;;;7.47;;
12359;SDS011;6244;51.460;7.090;2023-04-15T14:46:03;10.98;;;7.82;;
12359;SDS011;6244;51.460;7.090;2023-04-15T14:51:00;9.68;;;7.05;;
12359;SDS011;6244;51.460;7.090;2023-04-15T14:55:56;10.20;;;6.55;;
12359;SDS011;6244;51.460;7.090;2023-04-15T15:00:54;7.45;;;5.53;;
12359;SDS011;6244;51.460;7.090;2023-04-15T15:05:51;9.10;;;5.60;;
12359;SDS011;6244;51.460;7.090;2023-04-15T15:10:47;10.27;;;5.53;;
12359;SDS011;6244;51.460;7.090;2023-04-15T15:15:44;7.72;;;5.78;;
12359;SDS011;6244;51.460;7.090;2023-04-15T15:20:44;7.93;;;5.70;;
12359;SDS011;6244;51.460;7.090;2023-04-15T15:25:41;10.45;;;6.18;;
12359;SDS011;6244;51.460;7.090;2023-04-15T15:30:37;8.00;;;5.50;;
12359;SDS011;6244;51.460;7.090;2023-04-15T15:35:34;7.50;;;5.07;;
12359;SDS011;6244;51.460;7.090;2023-04-15T15:40:31;7.60;;;5.15;;
12359;SDS011;6244;51.460;7.090;2023-04-15T15:45:28;8.05;;;5.78;;
12359;SDS011;6244;51.460;7.090;2023-04-15T15:50:25;8.77;;;5.82;;
12359;SDS011;6244;51.460;7.090;2023-04-15T15:55:22;9.00;;;6.32;;
12359;SDS011;6244;51.460;7.090;2023-04-15T16:00:21;8.45;;;5.60;;
12359;SDS011;6244;51.460;7.090;2023-04-15T16:05:17;10.82;;;8.52;;
12359;SDS011;6244;51.460;7.090;2023-04-15T16:10:14;6.88;;;5.13;;
12359;SDS011;6244;51.460;7.090;2023-04-15T16:15:11;8.05;;;5.50;;
12359;SDS011;6244;51.460;7.090;2023-04-15T16:20:09;7.78;;;5.43;;
12359;SDS011;6244;51.460;7.090;2023-04-15T16:25:06;7.70;;;5.32;;
12359;SDS011;6244;51.460;7.090;2023-04-15T16:30:03;8.93;;;6.15;;
12359;SDS011;6244;51.460;7.090;2023-04-15T16:35:01;9.13;;;6.32;;
12359;SDS011;6244;51.460;7.090;2023-04-15T16:39:59;9.38;;;5.55;;
12359;SDS011;6244;51.460;7.090;2023-04-15T16:44:55;9.07;;;5.78;;
12359;SDS011;6244;51.460;7.090;2023-04-15T16:49:52;6.97;;;5.18;;
12359;SDS011;6244;51.460;7.090;2023-04-15T16:54:48;7.53;;;6.32;;
12359;SDS011;6244;51.460;7.090;2023-04-15T16:59:46;9.13;;;5.00;;
12359;SDS011;6244;51.460;7.090;2023-04-15T17:04:43;9.45;;;5.10;;
12359;SDS011;6244;51.460;7.090;2023-04-15T17:09:39;6.70;;;5.38;;
12359;SDS011;6244;51.460;7.090;2023-04-15T17:14:36;7.32;;;4.85;;
12359;SDS011;6244;51.460;7.090;2023-04-15T17:19:34;8.32;;;5.40;;
12359;SDS011;6244;51.460;7.090;2023-04-15T17:24:30;10.95;;;5.85;;
12359;SDS011;6244;51.460;7.090;2023-04-15T17:29:27;9.25;;;5.13;;
12359;SDS011;6244;51.460;7.090;2023-04-15T17:34:24;6.85;;;5.78;;
12359;SDS011;6244;51.460;7.090;2023-04-15T17:39:22;7.18;;;5.35;;
12359;SDS011;6244;51.460;7.090;2023-04-15T17:44:18;10.65;;;7.68;;
12359;SDS011;6244;51.460;7.090;2023-04-15T17:49:15;8.73;;;6.30;;
12359;SDS011;6244;51.460;7.090;2023-04-15T17:54:11;9.63;;;6.05;;
12359;SDS011;6244;51.460;7.090;2023-04-15T17:59:09;9.98;;;4.97;;
12359;SDS011;6244;51.460;7.090;2023-04-15T18:04:05;9.68;;;5.78;;
12359;SDS011;6244;51.460;7.090;2023-04-15T18:09:02;7.47;;;4.90;;
12359;SDS011;6244;51.460;7.090;2023-04-15T18:14:00;14.65;;;6.80;;
12359;SDS011;6244;51.460;7.090;2023-04-15T18:18:59;12.43;;;8.68;;
12359;SDS011;6244;51.460;7.090;2023-04-15T18:23:56;13.00;;;7.90;;
12359;SDS011;6244;51.460;7.090;2023-04-15T18:28:53;11.77;;;7.85;;
12359;SDS011;6244;51.460;7.090;2023-04-15T18:33:49;10.82;;;6.60;;
12359;SDS011;6244;51.460;7.090;2023-04-15T18:38:47;10.40;;;6.28;;
12359;SDS011;6244;51.460;7.090;2023-04-15T18:43:44;8.63;;;6.43;;
12359;SDS011;6244;51.460;7.090;2023-04-15T18:48:40;10.90;;;7.25;;
12359;SDS011;6244;51.460;7.090;2023-04-15T18:53:37;11.77;;;7.80;;
12359;SDS011;6244;51.460;7.090;2023-04-15T18:58:35;10.13;;;6.10;;
12359;SDS011;6244;51.460;7.090;2023-04-15T19:03:31;10.45;;;7.25;;
12359;SDS011;6244;51.460;7.090;2023-04-15T19:08:28;10.88;;;7.43;;
12359;SDS011;6244;51.460;7.090;2023-04-15T19:13:25;9.57;;;6.18;;
12359;SDS011;6244;51.460;7.090;2023-04-15T19:18:23;12.30;;;7.15;;
12359;SDS011;6244;51.460;7.090;2023-04-15T19:23:21;10.15;;;5.65;;
12359;SDS011;6244;51.460;7.090;2023-04-15T19:28:18;8.55;;;5.20;;
12359;SDS011;6244;51.460;7.090;2023-04-15T19:33:14;9.77;;;5.60;;
12359;SDS011;6244;51.460;7.090;2023-04-15T19:38:12;8.95;;;5.93;;
12359;SDS011;6244;51.460;7.090;2023-04-15T19:43:09;10.23;;;5.45;;
12359;SDS011;6244;51.460;7.090;2023-04-15T19:48:06;9.18;;;6.05;;
12359;SDS011;6244;51.460;7.090;2023-04-15T19:53:02;8.00;;;5.95;;
12359;SDS011;6244;51.460;7.090;2023-04-15T19:58:00;9.00;;;5.95;;
12359;SDS011;6244;51.460;7.090;2023-04-15T20:02:57;12.48;;;6.03;;
12359;SDS011;6244;51.460;7.090;2023-04-15T20:07:53;9.30;;;6.57;;
12359;SDS011;6244;51.460;7.090;2023-04-15T20:12:50;12.52;;;6.72;;
12359;SDS011;6244;51.460;7.090;2023-04-15T20:17:48;10.43;;;6.78;;
12359;SDS011;6244;51.460;7.090;2023-04-15T20:22:45;12.80;;;7.18;;
12359;SDS011;6244;51.460;7.090;2023-04-15T20:27:41;10.27;;;6.35;;
12359;SDS011;6244;51.460;7.090;2023-04-15T20:32:38;10.30;;;6.82;;
12359;SDS011;6244;51.460;7.090;2023-04-15T20:37:36;10.75;;;6.30;;
12359;SDS011;6244;51.460;7.090;2023-04-15T20:42:34;13.90;;;7.25;;
12359;SDS011;6244;51.460;7.090;2023-04-15T20:47:30;12.75;;;6.40;;
12359;SDS011;6244;51.460;7.090;2023-04-15T20:52:27;10.07;;;6.72;;
12359;SDS011;6244;51.460;7.090;2023-04-15T20:57:25;12.10;;;7.03;;
12359;SDS011;6244;51.460;7.090;2023-04-15T21:02:42;14.35;;;8.02;;
12359;SDS011;6244;51.460;7.090;2023-04-15T21:07:39;12.50;;;7.03;;
12359;SDS011;6244;51.460;7.090;2023-04-15T21:12:37;14.05;;;7.70;;
12359;SDS011;6244;51.460;7.090;2023-04-15T21:17:35;15.68;;;8.20;;
12359;SDS011;6244;51.460;7.090;2023-04-15T21:22:31;16.58;;;9.15;;
12359;SDS011;6244;51.460;7.090;2023-04-15T21:27:30;14.07;;;8.05;;
12359;SDS011;6244;51.460;7.090;2023-04-15T21:32:28;14.38;;;9.23;;
12359;SDS011;6244;51.460;7.090;2023-04-15T21:37:24;16.80;;;8.27;;
12359;SDS011;6244;51.460;7.090;2023-04-15T21:42:21;13.98;;;7.93;;
12359;SDS011;6244;51.460;7.090;2023-04-15T21:47:17;16.52;;;8.32;;
12359;SDS011;6244;51.460;7.090;2023-04-15T21:52:15;18.27;;;8.65;;
12359;SDS011;6244;51.460;7.090;2023-04-15T21:57:12;12.60;;;7.72;;
12359;SDS011;6244;51.460;7.090;2023-04-15T22:02:09;15.77;;;9.45;;
12359;SDS011;6244;51.460;7.090;2023-04-15T22:07:06;11.82;;;8.00;;
12359;SDS011;6244;51.460;7.090;2023-04-15T22:12:04;17.00;;;8.55;;
12359;SDS011;6244;51.460;7.090;2023-04-15T22:17:01;17.33;;;9.65;;
12359;SDS011;6244;51.460;7.090;2023-04-15T22:21:57;17.77;;;8.48;;
12359;SDS011;6244;51.460;7.090;2023-04-15T22:26:55;17.83;;;9.80;;
12359;SDS011;6244;51.460;7.090;2023-04-15T22:31:54;16.00;;;10.20;;
12359;SDS011;6244;51.460;7.090;2023-04-15T22:36:50;16.20;;;8.70;;
12359;SDS011;6244;51.460;7.090;2023-04-15T22:41:48;16.70;;;9.40;;
12359;SDS011;6244;51.460;7.090;2023-04-15T22:46:44;15.23;;;9.07;;
12359;SDS011;6244;51.460;7.090;2023-04-15T22:51:42;18.00;;;10.02;;
12359;SDS011;6244;51.460;7.090;2023-04-15T22:56:39;16.23;;;9.45;;
12359;SDS011;6244;51.460;7.090;2023-04-15T23:01:35;19.38;;;10.00;;
12359;SDS011;6244;51.460;7.090;2023-04-15T23:06:32;19.95;;;11.68;;
12359;SDS011;6244;51.460;7.090;2023-04-15T23:11:30;15.52;;;9.05;;
12359;SDS011;6244;51.460;7.090;2023-04-15T23:16:27;16.95;;;8.90;;
12359;SDS011;6244;51.460;7.090;2023-04-15T23:21:23;16.63;;;9.88;;
12359;SDS011;6244;51.460;7.090;2023-04-15T23:26:21;15.20;;;8.45;;
12359;SDS011;6244;51.460;7.090;2023-04-15T23:31:19;17.88;;;9.90;;
12359;SDS011;6244;51.460;7.090;2023-04-15T23:36:15;17.20;;;9.60;;
12359;SDS011;6244;51.460;7.090;2023-04-15T23:41:12;16.88;;;10.77;;
12359;SDS011;6244;51.460;7.090;2023-04-15T23:46:09;20.63;;;10.13;;
12359;SDS011;6244;51.460;7.090;2023-04-15T23:51:07;17.50;;;9.25;;
12359;SDS011;6244;51.460;7.090;2023-04-15T23:56:04;15.50;;;9.05;;
